Time;durP1;ratioP1;P1;durP2;ratioP2;P2;SDS_P1;SDS_P2;PMS_P1;PMS_P2;Temp;Humidity;BMP_temperature;BMP_pressure;BME280_temperature;BME280_humidity;BME280_pressure;Samples;Min_cycle;Max_cycle;Signal;HPM_P1;HPM_P2
2023/01/16 00:14:42;;;;;;;0.35;0.20;;;;;;;3.46;92.35;99477.06;9912959;29;20136;-87
2023/01/16 00:19:57;;;;;;;11.95;5.82;;;;;;;3.39;92.30;99469.97;9944244;29;20074;-85
2023/01/16 00:25:46;;;;;;;0.10;0.10;;;;;;;3.40;92.53;99466.56;9922507;29;20055;-87
2023/01/16 00:30:53;;;;;;;6.68;3.25;;;;;;;3.40;92.61;99466.56;9953420;24;20815;-86
2023/01/16 00:36:15;;;;;;;0.10;0.10;;;;;;;3.38;92.58;99463.03;9940715;29;20133;-86
2023/01/16 00:41:19;;;;;;;0.35;0.22;;;;;;;3.26;92.71;99448.97;9904153;29;20601;-86
2023/01/16 00:46:37;;;;;;;8.63;3.63;;;;;;;3.24;92.62;99437.69;9909354;29;20051;-86
2023/01/16 00:52:25;;;;;;;9.85;4.10;;;;;;;3.27;92.38;99435.22;9903801;29;20257;-86
2023/01/16 00:58:43;;;;;;;0.13;0.13;;;;;;;3.31;92.78;99430.97;9881868;29;20147;-87
2023/01/16 01:04:13;;;;;;;1.25;1.00;;;;;;;3.35;92.78;99412.97;9900544;29;20064;-86
2023/01/16 01:09:29;;;;;;;0.10;0.10;;;;;;;3.38;92.58;99401.81;9894543;29;20723;-86
2023/01/16 01:22:27;;;;;;;0.10;0.10;;;;;;;3.43;92.44;99383.81;9954042;24;20527;-86
2023/01/16 01:28:18;;;;;;;0.10;0.10;;;;;;;3.40;92.42;99363.03;9959582;29;20532;-86
2023/01/16 01:33:43;;;;;;;0.10;0.10;;;;;;;3.45;92.14;99353.66;9904893;29;20062;-86
2023/01/16 01:39:51;;;;;;;12.55;7.35;;;;;;;3.41;92.15;99338.91;9880276;29;20054;-87
2023/01/16 01:46:22;;;;;;;0.20;0.20;;;;;;;3.41;91.96;99325.97;9740704;30;20144;-85
2023/01/16 01:52:26;;;;;;;8.75;5.72;;;;;;;3.44;92.13;99315.66;9795652;30;20111;-86
2023/01/16 01:58:08;;;;;;;19.45;8.90;;;;;;;3.44;91.88;99301.03;9785678;30;20047;-85
2023/01/16 02:04:45;;;;;;;;;;;;;;;;;;;;;
2023/01/16 02:11:09;;;;;;;1.25;0.47;;;;;;;3.42;91.79;99284.59;9934006;24;20065;-88
2023/01/16 02:29:57;;;;;;;0.00;0.00;;;;;;;3.30;91.52;99243.81;9924623;29;20447;-87
2023/01/16 03:39:27;;;;;;;;;;;;;;;2.45;92.65;99151.41;11541052;24;20256;-88
2023/01/16 04:03:03;;;;;;;;;;;;;;;;;;;;;
2023/01/16 11:03:31;;;;;;;0.65;0.52;;;;;;;3.52;91.01;98367.00;9923130;29;20108;-84
2023/01/16 11:08:34;;;;;;;0.10;0.10;;;;;;;3.45;90.99;98354.88;9933194;29;20062;-83
2023/01/16 11:19:14;;;;;;;0.70;0.55;;;;;;;3.33;91.51;98325.50;9928657;29;20071;-83
2023/01/16 11:24:24;;;;;;;0.77;0.50;;;;;;;3.38;91.45;98309.13;9926935;29;20078;-82
2023/01/16 11:29:34;;;;;;;0.25;0.20;;;;;;;3.36;91.69;98291.88;9937200;29;20123;-83
2023/01/16 11:34:42;;;;;;;0.03;0.03;;;;;;;3.33;91.86;98278.94;9929801;29;20335;-84
2023/01/16 11:39:49;;;;;;;2.20;0.63;;;;;;;3.35;91.65;98264.28;9925781;29;20153;-84
2023/01/16 11:50:21;;;;;;;0.20;0.15;;;;;;;3.38;92.18;98241.84;9912983;29;20066;-82
2023/01/16 11:55:34;;;;;;;0.10;0.10;;;;;;;3.33;92.33;98219.44;9940118;29;20070;-85
2023/01/16 12:00:53;;;;;;;1.60;0.32;;;;;;;3.36;92.46;98206.53;9923792;29;20067;-84
2023/01/16 12:06:18;;;;;;;0.35;0.30;;;;;;;3.35;92.57;98191.84;9906276;29;20059;-83
2023/01/16 12:11:29;;;;;;;1.20;0.30;;;;;;;3.35;92.86;98173.75;9915569;29;20063;-82
2023/01/16 12:16:40;;;;;;;0.10;0.10;;;;;;;3.33;93.01;98162.53;9930431;29;20146;-83
2023/01/16 12:21:52;;;;;;;0.00;0.00;;;;;;;3.29;93.22;98141.81;9925318;29;20069;-82
2023/01/16 12:27:18;;;;;;;0.70;0.70;;;;;;;3.28;93.31;98130.59;9920918;29;20061;-83
2023/01/16 12:32:52;;;;;;;0.10;0.10;;;;;;;3.29;93.60;98118.53;9933040;29;20070;-83
2023/01/16 12:38:01;;;;;;;0.38;0.10;;;;;;;3.27;93.83;98108.19;9918392;29;20074;-81
2023/01/16 12:43:18;;;;;;;0.10;0.10;;;;;;;3.30;94.10;98094.38;9946955;29;20479;-81
2023/01/16 12:48:41;;;;;;;0.00;0.00;;;;;;;3.38;94.29;98081.47;9936188;29;20122;-82
2023/01/16 12:54:22;;;;;;;0.00;0.00;;;;;;;3.41;94.53;98055.59;9931827;29;20053;-84
2023/01/16 12:59:40;;;;;;;6.43;2.20;;;;;;;3.43;94.52;98048.75;9897416;29;20116;-82
2023/01/16 13:04:47;;;;;;;0.10;0.10;;;;;;;3.46;94.88;98028.91;9895851;29;20055;-81
2023/01/16 13:15:30;;;;;;;0.10;0.10;;;;;;;3.61;94.50;98004.75;9909319;29;20150;-82
2023/01/16 13:20:32;;;;;;;5.18;2.53;;;;;;;3.67;94.55;97999.59;9894731;29;20553;-80
2023/01/16 13:25:41;;;;;;;0.47;0.38;;;;;;;3.72;94.55;97995.28;9891523;29;20059;-82
2023/01/16 13:30:42;;;;;;;10.73;5.55;;;;;;;3.74;94.32;97986.63;9891061;29;20063;-82
2023/01/16 13:35:56;;;;;;;0.10;0.10;;;;;;;3.78;94.46;97975.44;9899049;29;20055;-81
2023/01/16 13:41:17;;;;;;;9.65;4.75;;;;;;;3.78;94.18;97978.00;9903957;29;20059;-81
2023/01/16 13:46:20;;;;;;;6.85;3.58;;;;;;;3.77;93.92;97981.47;9892769;29;20121;-82
2023/01/16 13:51:23;;;;;;;12.88;7.55;;;;;;;3.67;94.09;97968.53;9908592;29;20058;-84
2023/01/16 13:56:26;;;;;;;8.98;1.08;;;;;;;3.63;94.14;97969.38;9885512;29;20059;-82
2023/01/16 14:01:43;;;;;;;9.02;6.72;;;;;;;3.54;94.20;97969.38;9889154;29;20136;-83
2023/01/16 14:09:03;;;;;;;0.00;0.00;;;;;;;3.47;94.02;97941.81;9885808;29;20050;-83
2023/01/16 14:12:21;;;;;;;0.20;0.20;;;;;;;3.37;94.03;97922.84;9894268;29;20066;-81
2023/01/16 14:17:32;;;;;;;0.28;0.28;;;;;;;3.36;94.01;97927.16;9900793;29;20063;-81
2023/01/16 14:27:40;;;;;;;20.75;18.63;;;;;;;3.32;93.88;97907.31;9901562;29;20066;-82
2023/01/16 14:32:52;;;;;;;0.10;0.10;;;;;;;3.31;93.95;97910.75;9909371;29;20262;-82
2023/01/16 14:38:02;;;;;;;0.20;0.20;;;;;;;3.34;93.93;97882.31;9912120;29;20059;-82
2023/01/16 14:59:40;;;;;;;0.10;0.10;;;;;;;3.40;93.64;97857.31;9878269;29;20142;-82
2023/01/16 15:05:15;;;;;;;0.15;0.15;;;;;;;3.42;93.70;97860.75;9888159;29;20055;-81
2023/01/16 15:10:28;;;;;;;8.45;3.67;;;;;;;3.47;93.56;97851.28;9891665;29;20060;-82
2023/01/16 15:15:31;;;;;;;37.47;33.67;;;;;;;3.45;93.66;97842.63;9881625;29;20051;-83
2023/01/16 15:26:20;;;;;;;1.02;0.40;;;;;;;3.47;93.29;97828.00;9884590;29;20054;-82
2023/01/16 15:31:41;;;;;;;0.10;0.10;;;;;;;3.43;92.99;97823.69;9878907;29;20063;-85
2023/01/16 15:36:48;;;;;;;21.52;19.25;;;;;;;3.43;93.14;97821.09;9882912;29;20051;-86
2023/01/16 15:47:29;;;;;;;0.20;0.20;;;;;;;3.38;93.03;97803.00;9893292;29;20083;-85
2023/01/16 15:52:39;;;;;;;16.60;12.98;;;;;;;3.39;92.99;97812.47;9873734;29;20056;-85
2023/01/16 15:57:48;;;;;;;0.10;0.10;;;;;;;3.39;93.11;97798.66;9899542;29;20517;-84
2023/01/16 16:02:49;;;;;;;0.17;0.17;;;;;;;3.31;93.37;97791.78;9892626;29;20526;-82
2023/01/16 16:07:51;;;;;;;0.85;0.63;;;;;;;3.23;93.47;97793.53;9888518;29;20468;-83
2023/01/16 16:12:53;;;;;;;0.20;0.20;;;;;;;3.18;93.67;97779.72;9891289;29;20123;-83
2023/01/16 16:18:02;;;;;;;0.10;0.10;;;;;;;3.20;93.90;97783.19;9900495;29;20066;-84
2023/01/16 16:23:11;;;;;;;0.35;0.35;;;;;;;3.24;93.97;97777.13;9911163;29;20059;-83
2023/01/16 16:28:35;;;;;;;0.10;0.10;;;;;;;3.29;93.90;97772.84;9889151;29;20051;-83
2023/01/16 16:33:37;;;;;;;0.00;0.00;;;;;;;3.29;93.84;97761.63;9881590;29;20066;-84
2023/01/16 16:38:50;;;;;;;0.10;0.10;;;;;;;3.36;93.72;97751.28;9881096;29;20072;-84
2023/01/16 16:43:55;;;;;;;0.10;0.10;;;;;;;3.36;93.42;97742.63;9873641;29;20474;-83
2023/01/16 16:49:18;;;;;;;0.45;0.40;;;;;;;3.39;93.23;97741.78;9898668;29;20423;-84
2023/01/16 16:54:25;;;;;;;0.10;0.10;;;;;;;3.46;92.82;97733.13;9887410;29;20063;-84
2023/01/16 16:59:31;;;;;;;0.00;0.00;;;;;;;3.50;92.28;97734.84;9906929;29;20057;-84
2023/01/16 17:04:34;;;;;;;0.65;0.20;;;;;;;3.45;91.84;97731.41;9892615;29;20082;-83
2023/01/16 17:09:36;;;;;;;0.10;0.10;;;;;;;3.44;91.68;97743.47;9901518;29;20056;-82
2023/01/16 17:14:38;;;;;;;0.25;0.25;;;;;;;3.37;91.81;97726.25;9908905;29;20119;-83
2023/01/16 17:19:40;;;;;;;0.10;0.10;;;;;;;3.27;91.77;97728.03;9897526;29;20344;-83
2023/01/16 17:24:42;;;;;;;0.22;0.22;;;;;;;3.14;91.78;97727.19;9902528;29;20052;-83
2023/01/16 17:29:43;;;;;;;0.10;0.10;;;;;;;3.01;92.31;97716.00;9881438;29;20173;-85
2023/01/16 17:34:46;;;;;;;0.20;0.20;;;;;;;2.97;92.54;97719.47;9874308;29;20693;-84
2023/01/16 17:39:50;;;;;;;1.83;0.80;;;;;;;2.91;92.82;97703.97;9891855;29;20055;-85
2023/01/16 17:50:22;;;;;;;0.15;0.15;;;;;;;2.88;93.37;97688.44;9906672;29;20075;-84
2023/01/16 18:00:46;;;;;;;0.35;0.35;;;;;;;2.91;94.04;97672.06;9901316;29;20056;-82
2023/01/16 18:05:48;;;;;;;0.75;0.47;;;;;;;2.92;94.00;97669.50;9895533;29;20115;-83
2023/01/16 18:10:49;;;;;;;0.17;0.17;;;;;;;2.98;94.28;97673.78;9894397;29;20061;-83
2023/01/16 18:17:21;;;;;;;0.17;0.17;;;;;;;3.04;94.13;97658.25;9909702;29;20138;-83
2023/01/16 18:26:44;;;;;;;0.20;0.20;;;;;;;3.04;93.74;97660.00;9918521;29;20077;-83
2023/01/16 18:37:07;;;;;;;0.38;0.30;;;;;;;2.96;94.03;97660.88;9910248;29;20059;-84
2023/01/16 19:03:33;;;;;;;0.00;0.00;;;;;;;2.94;94.88;97641.06;9903734;29;20474;-86
2023/01/16 19:08:35;;;;;;;0.28;0.28;;;;;;;2.92;95.24;97625.56;9909652;29;20047;-83
2023/01/16 19:13:40;;;;;;;0.10;0.10;;;;;;;2.88;95.51;97607.47;9901760;29;20060;-84
2023/01/16 19:18:41;;;;;;;0.70;0.47;;;;;;;2.81;95.39;97612.66;9894164;29;20078;-84
2023/01/16 19:23:43;;;;;;;0.08;0.08;;;;;;;2.85;95.63;97620.41;9892851;29;20513;-84
2023/01/16 19:28:45;;;;;;;0.25;0.15;;;;;;;2.85;95.84;97602.31;9884240;29;20052;-83
2023/01/16 19:33:46;;;;;;;0.20;0.20;;;;;;;2.85;95.95;97605.75;9908390;29;20061;-85
2023/01/16 19:38:48;;;;;;;0.20;0.08;;;;;;;2.83;95.71;97594.56;9892204;29;20082;-84
2023/01/16 19:49:11;;;;;;;0.38;0.38;;;;;;;2.82;96.02;97591.13;9893948;29;20054;-84
2023/01/16 19:54:13;;;;;;;0.30;0.30;;;;;;;2.85;96.04;97590.25;9895725;29;20051;-83
2023/01/16 19:59:14;;;;;;;0.57;0.30;;;;;;;2.84;96.10;97591.13;9894237;29;20111;-83
2023/01/16 20:04:16;;;;;;;0.10;0.10;;;;;;;2.79;96.07;97574.75;9891940;29;20059;-83
2023/01/16 20:09:18;;;;;;;0.10;0.10;;;;;;;2.76;96.13;97575.66;9894401;29;20078;-83
2023/01/16 20:14:20;;;;;;;0.10;0.10;;;;;;;2.73;96.04;97574.78;9896388;29;20115;-82
2023/01/16 20:19:23;;;;;;;0.10;0.10;;;;;;;2.66;96.19;97586.88;9900045;29;20043;-83
2023/01/16 20:24:26;;;;;;;0.20;0.20;;;;;;;2.62;96.22;97569.66;9894010;29;20051;-83
2023/01/16 20:29:32;;;;;;;0.55;0.22;;;;;;;2.59;96.46;97573.09;9894863;29;20105;-84
2023/01/16 20:34:34;;;;;;;0.15;0.15;;;;;;;2.56;96.54;97562.78;9906589;29;20439;-83
2023/01/16 20:39:36;;;;;;;0.10;0.10;;;;;;;2.54;96.54;97561.94;9897286;29;20063;-83
2023/01/16 20:49:58;;;;;;;0.75;0.52;;;;;;;2.44;96.95;97558.50;9895934;29;20432;-83
2023/01/16 20:54:59;;;;;;;0.10;0.10;;;;;;;2.40;96.87;97551.63;9895694;29;20081;-84
2023/01/16 21:00:05;;;;;;;0.17;0.17;;;;;;;2.37;96.74;97550.78;9897263;29;20059;-83
2023/01/16 21:05:07;;;;;;;0.10;0.10;;;;;;;2.37;96.78;97555.94;9903129;29;20524;-83
2023/01/16 21:10:09;;;;;;;0.35;0.35;;;;;;;2.41;96.95;97555.06;9880382;29;20055;-83
2023/01/16 21:15:11;;;;;;;0.20;0.20;;;;;;;2.45;96.97;97554.22;9894948;29;20059;-84
2023/01/16 21:25:33;;;;;;;0.63;0.63;;;;;;;2.51;97.16;97548.16;9877143;29;20134;-84
2023/01/16 21:30:35;;;;;;;1.00;0.75;;;;;;;2.54;97.08;97545.56;9902206;29;20043;-83
2023/01/16 21:35:37;;;;;;;0.38;0.38;;;;;;;2.52;97.34;97545.56;9888645;29;20122;-83
2023/01/16 21:40:39;;;;;;;2.20;0.68;;;;;;;2.48;97.28;97528.38;9886397;29;20058;-83
2023/01/16 21:51:03;;;;;;;0.20;0.20;;;;;;;2.38;97.57;97518.94;9907756;29;20055;-83
2023/01/16 21:56:04;;;;;;;0.15;0.15;;;;;;;2.36;97.59;97507.72;9890911;29;20075;-83
2023/01/16 22:01:06;;;;;;;0.50;0.50;;;;;;;2.34;97.60;97512.03;9891736;29;20074;-82
2023/01/16 22:06:08;;;;;;;0.10;0.10;;;;;;;2.35;97.72;97509.47;9903129;29;20048;-82
2023/01/16 22:21:55;;;;;;;0.10;0.10;;;;;;;2.45;98.12;97507.72;9896944;29;20063;-84
2023/01/16 22:26:57;;;;;;;0.17;0.15;;;;;;;2.46;98.16;97512.00;9896998;29;20058;-82
2023/01/16 22:31:59;;;;;;;0.22;0.22;;;;;;;2.47;98.20;97512.00;9898381;29;20557;-82
2023/01/16 22:37:01;;;;;;;0.28;0.28;;;;;;;2.51;98.11;97512.88;9900237;29;20078;-82
2023/01/16 22:42:02;;;;;;;0.17;0.17;;;;;;;2.50;98.46;97511.13;9910105;29;20059;-82
2023/01/16 22:47:06;;;;;;;0.57;0.57;;;;;;;2.55;98.62;97512.00;9909224;29;20572;-83
2023/01/16 22:52:08;;;;;;;0.20;0.20;;;;;;;2.56;98.62;97505.94;9911117;29;20367;-83
2023/01/16 22:57:10;;;;;;;0.73;0.70;;;;;;;2.57;98.63;97506.84;9912272;29;20048;-82
2023/01/16 23:02:12;;;;;;;0.10;0.10;;;;;;;2.54;98.65;97499.06;9906079;29;20044;-83
2023/01/16 23:07:14;;;;;;;0.30;0.30;;;;;;;2.54;98.53;97502.53;9892692;29;20113;-82
2023/01/16 23:12:17;;;;;;;0.52;0.30;;;;;;;2.54;98.83;97502.53;9904322;29;20618;-82
2023/01/16 23:17:20;;;;;;;0.10;0.10;;;;;;;2.55;98.91;97506.84;9882998;29;20043;-82
2023/01/16 23:22:21;;;;;;;0.15;0.15;;;;;;;2.62;98.89;97513.66;9899317;29;20082;-82
2023/01/16 23:27:24;;;;;;;0.50;0.50;;;;;;;2.66;98.95;97509.38;9883305;29;20070;-83
2023/01/16 23:32:26;;;;;;;0.45;0.45;;;;;;;2.68;98.92;97509.38;9903252;29;20508;-82
2023/01/16 23:37:28;;;;;;;0.38;0.35;;;;;;;2.71;99.08;97514.53;9891116;29;20052;-82
2023/01/16 23:47:49;;;;;;;0.23;0.23;;;;;;;2.74;99.22;97504.16;9909969;29;20127;-82
2023/01/16 23:52:51;;;;;;;0.30;0.30;;;;;;;2.78;99.34;97513.63;9899890;29;20089;-82
2023/01/16 23:57:53;;;;;;;1.13;0.47;;;;;;;2.78;99.30;97505.88;9886572;29;20051;-82
